createdAt,value
2022-10-27T00:00:43.095Z,66.20
2022-10-27T00:03:15.123Z,51.50
2022-10-27T00:05:44.302Z,53.90
2022-10-27T00:08:19.563Z,51.10
2022-10-27T00:10:56.517Z,52.40
2022-10-27T00:13:23.507Z,58.20
2022-10-27T00:16:01.822Z,54.30
2022-10-27T00:18:28.709Z,61.70
2022-10-27T00:21:10.308Z,53.10
2022-10-27T00:26:06.594Z,67.70
2022-10-27T00:28:34.006Z,51.90
2022-10-27T00:31:03.791Z,52.50
2022-10-27T00:36:05.096Z,52.50
2022-10-27T00:38:32.136Z,67.60
2022-10-27T00:43:38.217Z,51.80
2022-10-27T00:46:26.819Z,63.70
2022-10-27T00:48:58.073Z,67.80
2022-10-27T00:53:52.919Z,52.50
2022-10-27T01:03:43.922Z,52.20
2022-10-27T01:06:12.884Z,55.40
2022-10-27T01:16:31.387Z,69.50
2022-10-27T01:19:34.717Z,69.00
2022-10-27T01:22:25.485Z,69.60
2022-10-27T01:25:11.182Z,53.00
2022-10-27T01:28:34.903Z,58.30
2022-10-27T01:31:20.076Z,53.20
2022-10-27T01:34:01.190Z,53.40
2022-10-27T01:36:43.374Z,53.50
2022-10-27T01:39:19.597Z,69.40
2022-10-27T01:41:56.024Z,70.00
2022-10-27T01:44:28.393Z,54.50
2022-10-27T01:46:57.308Z,69.50
2022-10-27T01:54:20.849Z,54.50
2022-10-27T01:56:55.200Z,69.60
2022-10-27T01:59:52.218Z,70.50
2022-10-27T02:02:32.793Z,54.60
2022-10-27T02:05:29.131Z,53.90
2022-10-27T02:08:18.833Z,67.20
2022-10-27T02:10:56.282Z,69.80
2022-10-27T02:13:23.873Z,70.30
2022-10-27T02:15:55.391Z,54.80
2022-10-27T02:18:27.957Z,54.90
2022-10-27T02:26:10.330Z,54.10
2022-10-27T02:28:41.175Z,55.40
2022-10-27T02:31:09.235Z,55.30
2022-10-27T02:33:36.577Z,54.80
2022-10-27T02:36:03.649Z,70.30
2022-10-27T02:38:30.469Z,69.60
2022-10-27T02:40:57.551Z,67.50
2022-10-27T02:45:51.485Z,70.00
2022-10-27T02:58:07.186Z,63.60
2022-10-27T03:00:34.039Z,70.90
2022-10-27T03:05:29.894Z,69.70
2022-10-27T03:10:23.906Z,70.50
2022-10-27T03:17:49.178Z,55.30
2022-10-27T03:20:17.262Z,55.40
2022-10-27T03:25:14.521Z,55.30
2022-10-27T03:27:43.290Z,55.90
2022-10-27T03:30:12.542Z,71.60
2022-10-27T03:47:23.776Z,68.20
2022-10-27T03:52:17.927Z,71.00
2022-10-27T03:59:40.293Z,61.40
2022-10-27T04:02:07.461Z,60.10
2022-10-27T04:09:29.432Z,71.50
2022-10-27T04:19:19.376Z,56.70
2022-10-27T04:21:47.045Z,56.00
2022-10-27T04:34:03.504Z,71.90
2022-10-27T04:36:30.718Z,71.20
2022-10-27T04:51:22.119Z,71.20
2022-10-27T04:58:45.009Z,72.20
2022-10-27T05:01:13.845Z,56.50
2022-10-27T05:13:30.113Z,71.40
2022-10-27T05:16:14.960Z,55.60
2022-10-27T05:23:36.594Z,71.60
2022-10-27T05:28:30.743Z,72.00
2022-10-27T05:30:58.960Z,56.20
2022-10-27T05:33:27.074Z,72.50
2022-10-27T05:40:55.256Z,59.60
2022-10-27T05:43:22.053Z,71.10
2022-10-27T05:45:48.849Z,71.20
2022-10-27T05:48:15.596Z,71.40
2022-10-27T05:58:10.881Z,56.60
2022-10-27T06:00:38.906Z,56.90
2022-10-27T06:03:16.226Z,56.60
2022-10-27T06:10:37.447Z,72.70
2022-10-27T06:13:05.846Z,56.90
2022-10-27T06:15:34.148Z,56.70
2022-10-27T06:20:28.866Z,71.60
2022-10-27T06:22:56.108Z,56.60
2022-10-27T06:25:22.977Z,61.40
2022-10-27T06:37:40.643Z,56.80
2022-10-27T06:40:08.725Z,72.30
2022-10-27T06:42:48.827Z,57.20
2022-10-27T06:47:58.761Z,72.30
2022-10-27T06:55:21.180Z,72.50
2022-10-27T07:00:16.258Z,61.80
2022-10-27T07:05:10.734Z,72.00
2022-10-27T07:10:07.297Z,56.10
2022-10-27T07:12:35.060Z,55.50
2022-10-27T07:22:23.930Z,70.50
2022-10-27T07:24:50.960Z,70.30
2022-10-27T07:37:06.849Z,70.90
2022-10-27T07:56:47.540Z,70.00
2022-10-27T08:04:13.504Z,68.80
2022-10-27T08:21:24.485Z,53.50
2022-10-27T08:28:48.230Z,49.30
2022-10-27T08:41:25.608Z,61.40
2022-10-27T08:46:36.910Z,61.00
2022-10-27T08:49:06.430Z,45.30
2022-10-27T08:51:35.885Z,44.20
2022-10-27T08:54:05.618Z,43.60
2022-10-27T08:56:39.937Z,57.80
2022-10-27T08:59:14.210Z,57.80
2022-10-27T09:01:50.602Z,42.70
2022-10-27T09:04:35.701Z,42.30
2022-10-27T09:09:54.860Z,40.20
2022-10-27T09:12:56.063Z,53.90
2022-10-27T09:15:44.108Z,39.20
2022-10-27T09:18:48.540Z,51.00
2022-10-27T09:21:21.526Z,38.30
2022-10-27T09:24:01.626Z,41.00
2022-10-27T09:26:33.557Z,38.70
2022-10-27T09:29:04.831Z,38.80
2022-10-27T09:31:47.181Z,54.00
2022-10-27T09:34:38.258Z,54.60
2022-10-27T09:37:16.089Z,38.80
2022-10-27T09:39:47.515Z,39.30
2022-10-27T09:44:49.909Z,39.00
2022-10-27T09:49:47.410Z,38.40
2022-10-27T09:52:37.756Z,38.00
2022-10-27T09:57:38.873Z,37.40
2022-10-27T10:00:09.249Z,38.10
2022-10-27T10:02:47.173Z,47.80
2022-10-27T10:05:32.445Z,35.40
2022-10-27T10:08:25.928Z,35.60
2022-10-27T10:11:01.286Z,33.60
2022-10-27T10:13:38.299Z,33.80
2022-10-27T10:16:11.488Z,46.60
2022-10-27T10:18:40.712Z,33.50
2022-10-27T10:21:12.690Z,32.50
2022-10-27T10:23:52.989Z,43.80
2022-10-27T10:28:50.819Z,33.00
2022-10-27T10:31:26.955Z,32.70
2022-10-27T10:34:02.544Z,46.70
2022-10-27T10:36:35.495Z,46.60
2022-10-27T10:41:30.638Z,47.40
2022-10-27T10:44:16.548Z,47.40
2022-10-27T10:47:29.769Z,47.10
2022-10-27T10:50:01.546Z,40.40
2022-10-27T10:52:37.247Z,34.20
2022-10-27T10:55:23.824Z,33.90
2022-10-27T10:57:53.922Z,34.40
2022-10-27T11:00:21.841Z,34.30
2022-10-27T11:03:12.437Z,45.40
2022-10-27T11:05:40.926Z,34.70
2022-10-27T11:08:21.395Z,34.50
2022-10-27T11:10:50.183Z,34.90
2022-10-27T11:13:26.116Z,48.10
2022-10-27T11:15:58.868Z,34.80
2022-10-27T11:18:32.989Z,47.90
2022-10-27T11:21:14.637Z,34.30
2022-10-27T11:23:44.131Z,49.00
2022-10-27T11:26:11.932Z,34.30
2022-10-27T11:28:47.034Z,34.70
2022-10-27T11:31:19.949Z,34.90
2022-10-27T11:34:21.662Z,44.40
2022-10-27T11:36:54.908Z,29.70
2022-10-27T11:39:30.230Z,44.40
2022-10-27T11:42:45.905Z,30.40
2022-10-27T11:45:27.977Z,45.40
2022-10-27T11:48:02.122Z,45.90
2022-10-27T11:50:46.322Z,31.40
2022-10-27T11:53:14.302Z,31.00
2022-10-27T11:55:58.316Z,45.70
2022-10-27T11:58:58.762Z,30.90
2022-10-27T12:01:55.902Z,31.60
2022-10-27T12:07:16.628Z,32.60
2022-10-27T12:09:58.172Z,32.20
2022-10-27T12:12:31.473Z,46.30
2022-10-27T12:15:10.968Z,47.20
2022-10-27T12:17:56.016Z,48.30
2022-10-27T12:20:35.832Z,39.20
2022-10-27T12:23:13.375Z,34.30
2022-10-27T12:25:49.880Z,35.00
2022-10-27T12:28:17.559Z,49.90
2022-10-27T12:30:47.481Z,35.70
2022-10-27T12:33:19.982Z,34.70
2022-10-27T12:36:11.704Z,35.10
2022-10-27T12:38:46.090Z,34.50
2022-10-27T12:41:35.359Z,34.40
2022-10-27T12:44:35.247Z,41.30
2022-10-27T12:49:44.969Z,33.40
2022-10-27T12:52:23.443Z,46.90
2022-10-27T12:55:13.541Z,46.80
2022-10-27T12:58:03.324Z,47.10
2022-10-27T13:00:44.254Z,46.30
2022-10-27T13:03:33.294Z,47.20
2022-10-27T13:06:18.839Z,47.40
2022-10-27T13:09:07.215Z,47.20
2022-10-27T13:14:19.624Z,46.70
2022-10-27T13:19:29.530Z,35.40
2022-10-27T13:22:16.516Z,33.10
2022-10-27T13:27:28.122Z,47.70
2022-10-27T13:30:04.240Z,32.90
2022-10-27T13:32:40.372Z,33.40
2022-10-27T13:35:13.030Z,47.30
2022-10-27T13:37:50.252Z,33.00
2022-10-27T13:40:22.945Z,47.20
2022-10-27T13:43:17.340Z,47.40
2022-10-27T13:45:48.598Z,47.40
2022-10-27T13:48:21.341Z,33.00
2022-10-27T13:50:50.777Z,33.50
2022-10-27T13:55:45.276Z,46.50
2022-10-27T13:58:48.977Z,33.10
2022-10-27T14:01:47.723Z,45.70
2022-10-27T14:04:30.529Z,46.50
2022-10-27T14:10:00.148Z,32.40
2022-10-27T14:12:34.462Z,30.30
2022-10-27T14:15:25.770Z,41.50
2022-10-27T14:17:54.532Z,41.10
2022-10-27T14:20:31.567Z,28.30
2022-10-27T14:23:13.605Z,28.80
2022-10-27T14:28:20.920Z,29.70
2022-10-27T14:31:11.646Z,39.80
2022-10-27T14:36:18.067Z,42.30
2022-10-27T14:38:45.960Z,41.50
2022-10-27T14:41:18.753Z,41.00
2022-10-27T14:43:49.283Z,29.50
2022-10-27T14:46:28.612Z,29.30
2022-10-27T14:49:02.163Z,40.70
2022-10-27T14:51:33.471Z,29.30
2022-10-27T14:56:29.773Z,42.50
2022-10-27T14:59:02.192Z,29.30
2022-10-27T15:01:35.403Z,38.70
2022-10-27T15:04:20.233Z,37.50
2022-10-27T15:06:48.479Z,26.00
2022-10-27T15:09:33.835Z,34.80
2022-10-27T15:12:04.112Z,35.70
2022-10-27T15:14:33.607Z,36.00
2022-10-27T15:17:01.528Z,32.20
2022-10-27T15:21:56.428Z,37.80
2022-10-27T15:24:25.526Z,27.80
2022-10-27T15:26:53.633Z,40.60
2022-10-27T15:29:21.888Z,40.10
2022-10-27T15:31:57.865Z,40.60
2022-10-27T15:34:36.172Z,42.10
2022-10-27T15:37:34.921Z,32.30
2022-10-27T15:40:44.792Z,43.10
2022-10-27T15:43:30.458Z,43.10
2022-10-27T15:46:26.350Z,30.00
2022-10-27T15:49:15.353Z,44.00
2022-10-27T15:51:58.277Z,44.10
2022-10-27T15:54:36.874Z,43.10
2022-10-27T15:57:25.569Z,31.60
2022-10-27T16:00:14.181Z,31.80
2022-10-27T16:02:48.037Z,32.10
2022-10-27T16:05:29.837Z,32.60
2022-10-27T16:08:14.772Z,46.50
2022-10-27T16:10:42.170Z,47.20
2022-10-27T16:13:16.626Z,47.60
2022-10-27T16:15:46.388Z,34.60
2022-10-27T16:18:16.347Z,47.70
2022-10-27T16:20:44.574Z,35.50
2022-10-27T16:23:13.079Z,48.30
2022-10-27T16:25:44.141Z,36.20
2022-10-27T16:28:22.863Z,49.10
2022-10-27T16:33:19.852Z,46.60
2022-10-27T16:35:46.998Z,52.30
2022-10-27T16:40:47.475Z,38.40
2022-10-27T16:43:28.376Z,38.30
2022-10-27T16:45:55.637Z,45.10
2022-10-27T16:53:20.745Z,53.90
2022-10-27T16:56:05.710Z,54.30
2022-10-27T16:58:41.739Z,39.90
2022-10-27T17:01:14.780Z,54.60
2022-10-27T17:08:37.302Z,54.20
2022-10-27T17:11:12.668Z,41.20
2022-10-27T17:16:08.820Z,41.70
2022-10-27T17:18:35.676Z,55.90
2022-10-27T17:23:30.530Z,55.60
2022-10-27T17:26:02.198Z,41.90
2022-10-27T17:31:01.164Z,42.30
2022-10-27T17:35:57.476Z,43.00
2022-10-27T17:38:24.940Z,53.10
2022-10-27T17:40:56.983Z,43.10
2022-10-27T17:43:24.984Z,57.30
2022-10-27T17:46:18.103Z,57.10
2022-10-27T17:48:47.263Z,55.70
2022-10-27T17:51:19.753Z,43.80
2022-10-27T17:53:47.431Z,58.10
2022-10-27T17:56:23.077Z,59.00
2022-10-27T17:58:50.671Z,58.40
2022-10-27T18:01:23.149Z,44.10
2022-10-27T18:03:52.762Z,44.50
2022-10-27T18:06:21.348Z,59.00
2022-10-27T18:11:24.049Z,60.30
2022-10-27T18:13:52.823Z,45.30
2022-10-27T18:16:24.878Z,60.60
2022-10-27T18:18:52.657Z,60.80
2022-10-27T18:21:20.036Z,59.60
2022-10-27T18:23:51.923Z,61.10
2022-10-27T18:26:19.241Z,60.60
2022-10-27T18:31:16.231Z,61.40
2022-10-27T18:33:45.167Z,60.60
2022-10-27T18:36:17.703Z,46.60
2022-10-27T18:41:16.621Z,50.20
2022-10-27T18:43:47.822Z,46.30
2022-10-27T18:46:15.741Z,46.70
2022-10-27T18:51:17.204Z,61.10
2022-10-27T18:56:12.827Z,47.20
2022-10-27T19:01:10.215Z,48.20
2022-10-27T19:06:06.945Z,48.40
2022-10-27T19:11:07.151Z,48.10
2022-10-27T19:13:40.096Z,48.40
2022-10-27T19:16:13.186Z,62.80
2022-10-27T19:21:13.607Z,62.60
2022-10-27T19:26:27.869Z,48.20
2022-10-27T19:28:56.180Z,63.40
2022-10-27T19:31:25.362Z,48.10
2022-10-27T19:36:31.399Z,48.00
2022-10-27T19:38:59.696Z,48.30
2022-10-27T19:41:29.297Z,48.10
2022-10-27T19:43:57.194Z,48.10
2022-10-27T19:46:26.055Z,48.30
2022-10-27T19:49:05.550Z,63.90
2022-10-27T19:51:37.857Z,48.10
2022-10-27T19:54:09.707Z,48.20
2022-10-27T19:56:40.999Z,63.90
2022-10-27T19:59:11.074Z,64.00
2022-10-27T20:01:40.194Z,63.80
2022-10-27T20:04:10.858Z,49.20
2022-10-27T20:06:46.344Z,49.10
2022-10-27T20:09:15.135Z,64.90
2022-10-27T20:11:42.740Z,63.90
2022-10-27T20:16:40.271Z,49.60
2022-10-27T20:19:26.647Z,49.30
2022-10-27T20:24:22.852Z,63.60
2022-10-27T20:29:21.622Z,49.10
2022-10-27T20:34:18.731Z,63.10
2022-10-27T20:39:15.067Z,64.10
2022-10-27T20:41:42.205Z,64.50
2022-10-27T20:46:36.353Z,60.20
2022-10-27T20:49:03.396Z,60.10
2022-10-27T20:51:31.916Z,49.00
2022-10-27T20:53:59.153Z,63.80
2022-10-27T20:56:39.746Z,51.30
2022-10-27T21:01:42.051Z,63.00
2022-10-27T21:06:42.338Z,48.20
2022-10-27T21:09:14.959Z,64.00
2022-10-27T21:11:42.748Z,48.60
2022-10-27T21:14:10.221Z,62.60
2022-10-27T21:19:08.021Z,49.00
2022-10-27T21:21:35.570Z,64.10
2022-10-27T21:24:03.783Z,48.90
2022-10-27T21:26:31.092Z,63.90
2022-10-27T21:28:58.863Z,64.10
2022-10-27T21:31:28.702Z,49.00
2022-10-27T21:33:56.182Z,64.00
2022-10-27T21:36:23.495Z,63.70
2022-10-27T21:38:51.493Z,49.10
2022-10-27T21:41:22.546Z,49.40
2022-10-27T21:43:51.482Z,49.40
2022-10-27T21:46:20.885Z,64.00
2022-10-27T21:48:48.308Z,64.30
2022-10-27T21:51:16.011Z,58.00
2022-10-27T21:53:43.242Z,49.60
2022-10-27T21:56:11.946Z,49.70
2022-10-27T21:58:39.906Z,50.10
2022-10-27T22:01:12.513Z,49.50
2022-10-27T22:03:40.827Z,64.40
2022-10-27T22:06:13.125Z,64.10
2022-10-27T22:08:40.000Z,56.20
2022-10-27T22:11:21.212Z,49.70
2022-10-27T22:16:17.759Z,64.30
2022-10-27T22:18:46.337Z,50.50
2022-10-27T22:21:15.783Z,50.30
2022-10-27T22:23:43.045Z,55.60
2022-10-27T22:26:18.065Z,49.80
2022-10-27T22:28:46.001Z,57.60
2022-10-27T22:31:21.450Z,64.60
2022-10-27T22:36:18.254Z,50.20
2022-10-27T22:41:15.783Z,50.30
2022-10-27T22:43:43.878Z,50.10
2022-10-27T22:46:19.509Z,50.30
2022-10-27T22:48:46.406Z,65.00
2022-10-27T22:51:15.374Z,50.30
2022-10-27T22:53:43.193Z,50.20
2022-10-27T22:56:21.421Z,58.30
2022-10-27T22:58:53.684Z,58.70
2022-10-27T23:01:29.125Z,66.00
2022-10-27T23:03:58.626Z,50.50
2022-10-27T23:06:27.529Z,64.80
2022-10-27T23:09:00.055Z,50.60
2022-10-27T23:11:32.195Z,50.60
2022-10-27T23:16:28.992Z,58.00
2022-10-27T23:18:57.460Z,51.00
2022-10-27T23:21:24.899Z,65.30
2022-10-27T23:23:52.851Z,51.00
2022-10-27T23:26:25.615Z,51.10
2022-10-27T23:28:58.621Z,51.30
2022-10-27T23:31:26.931Z,51.30
2022-10-27T23:33:55.413Z,51.50
2022-10-27T23:36:23.242Z,51.20
2022-10-27T23:38:50.925Z,63.80
2022-10-27T23:41:18.643Z,66.30
2022-10-27T23:43:50.624Z,59.30
2022-10-27T23:46:17.828Z,65.90
2022-10-27T23:48:44.881Z,57.60
2022-10-27T23:51:12.255Z,67.20
2022-10-27T23:56:09.332Z,52.20
2022-10-27T23:58:37.857Z,66.20
